createdAt,value
2023-04-15T00:02:15.344Z,7.50
2023-04-15T00:04:44.731Z,5.90
2023-04-15T00:07:15.835Z,4.60
2023-04-15T00:09:45.714Z,4.10
2023-04-15T00:12:15.672Z,3.30
2023-04-15T00:14:44.834Z,7.20
2023-04-15T00:17:14.454Z,4.90
2023-04-15T00:19:44.288Z,4.50
2023-04-15T00:22:13.745Z,4.60
2023-04-15T00:24:43.885Z,4.00
2023-04-15T00:27:14.792Z,4.50
2023-04-15T00:29:44.138Z,5.40
2023-04-15T00:32:13.340Z,5.70
2023-04-15T00:34:42.743Z,8.20
2023-04-15T00:37:12.133Z,7.30
2023-04-15T00:39:41.343Z,7.30
2023-04-15T00:42:11.439Z,5.40
2023-04-15T00:44:40.760Z,5.60
2023-04-15T00:47:11.406Z,4.70
2023-04-15T00:49:40.936Z,7.20
2023-04-15T00:52:10.385Z,5.40
2023-04-15T00:54:40.203Z,7.50
2023-04-15T00:57:09.578Z,5.70
2023-04-15T00:59:39.071Z,5.50
2023-04-15T01:02:08.789Z,6.40
2023-04-15T01:04:38.368Z,5.30
2023-04-15T01:07:09.383Z,5.90
2023-04-15T01:09:39.125Z,5.80
2023-04-15T01:12:10.919Z,6.30
2023-04-15T01:14:40.623Z,5.80
2023-04-15T01:17:09.756Z,5.30
2023-04-15T01:19:40.175Z,7.60
2023-04-15T01:22:10.160Z,9.40
2023-04-15T01:24:39.724Z,7.20
2023-04-15T01:27:14.353Z,6.80
2023-04-15T01:29:46.670Z,7.20
2023-04-15T01:32:16.013Z,7.70
2023-04-15T01:34:45.733Z,6.40
2023-04-15T01:37:16.051Z,7.70
2023-04-15T01:39:45.845Z,6.50
2023-04-15T01:42:15.367Z,6.40
2023-04-15T01:44:45.258Z,7.20
2023-04-15T01:47:15.265Z,7.70
2023-04-15T01:49:46.101Z,7.60
2023-04-15T01:52:15.481Z,10.00
2023-04-15T01:54:45.351Z,8.90
2023-04-15T01:57:16.849Z,7.50
2023-04-15T01:59:46.567Z,7.50
2023-04-15T02:02:15.703Z,8.10
2023-04-15T02:04:44.976Z,10.20
2023-04-15T02:07:14.738Z,9.00
2023-04-15T02:09:45.643Z,8.00
2023-04-15T02:12:15.289Z,7.00
2023-04-15T02:14:44.445Z,8.10
2023-04-15T02:17:13.636Z,7.50
2023-04-15T02:19:42.933Z,8.60
2023-04-15T02:22:17.759Z,8.30
2023-04-15T02:24:48.766Z,10.20
2023-04-15T02:27:18.931Z,7.80
2023-04-15T02:29:50.476Z,9.60
2023-04-15T02:32:22.846Z,8.20
2023-04-15T02:34:53.571Z,8.00
2023-04-15T02:37:22.855Z,8.70
2023-04-15T02:39:52.208Z,7.80
2023-04-15T02:42:22.240Z,7.00
2023-04-15T02:44:51.272Z,9.90
2023-04-15T02:47:20.727Z,12.30
2023-04-15T02:49:50.671Z,8.40
2023-04-15T02:52:19.951Z,10.80
2023-04-15T02:54:51.768Z,9.00
2023-04-15T02:57:21.138Z,9.80
2023-04-15T02:59:50.262Z,8.60
2023-04-15T03:02:22.326Z,9.40
2023-04-15T03:04:51.779Z,9.30
2023-04-15T03:07:20.982Z,9.80
2023-04-15T03:09:50.170Z,10.20
2023-04-15T03:12:19.477Z,10.50
2023-04-15T03:14:48.721Z,9.80
2023-04-15T03:17:17.918Z,7.30
2023-04-15T03:19:47.258Z,13.30
2023-04-15T03:22:17.911Z,8.00
2023-04-15T03:24:47.161Z,7.70
2023-04-15T03:27:16.563Z,9.00
2023-04-15T03:29:45.753Z,8.50
2023-04-15T03:32:16.400Z,9.30
2023-04-15T03:34:45.866Z,8.50
2023-04-15T03:37:15.526Z,7.70
2023-04-15T03:39:46.247Z,9.10
2023-04-15T03:42:15.501Z,9.50
2023-04-15T03:44:44.548Z,11.80
2023-04-15T03:47:14.319Z,11.50
2023-04-15T03:49:46.275Z,10.30
2023-04-15T03:52:16.053Z,10.20
2023-04-15T03:54:45.493Z,11.70
2023-04-15T03:57:15.808Z,11.50
2023-04-15T03:59:45.425Z,11.70
2023-04-15T04:02:15.093Z,9.50
2023-04-15T04:04:44.449Z,8.90
2023-04-15T04:07:17.931Z,10.20
2023-04-15T04:09:47.534Z,10.00
2023-04-15T04:12:18.875Z,13.20
2023-04-15T04:14:50.347Z,9.50
2023-04-15T04:17:20.477Z,9.50
2023-04-15T04:19:49.867Z,9.50
2023-04-15T04:22:22.289Z,9.60
2023-04-15T04:24:55.318Z,9.80
2023-04-15T04:27:27.338Z,10.50
2023-04-15T04:29:56.577Z,13.00
2023-04-15T04:32:26.020Z,9.60
2023-04-15T04:34:55.491Z,9.20
2023-04-15T04:37:25.301Z,11.00
2023-04-15T04:39:54.620Z,12.00
2023-04-15T04:42:24.080Z,10.60
2023-04-15T04:44:53.450Z,12.50
2023-04-15T04:48:09.763Z,12.70
2023-04-15T04:50:23.754Z,10.70
2023-04-15T04:52:54.026Z,12.10
2023-04-15T04:55:23.214Z,11.30
2023-04-15T04:57:52.764Z,10.60
2023-04-15T05:00:22.337Z,12.60
2023-04-15T05:02:55.141Z,10.70
2023-04-15T05:05:24.941Z,8.30
2023-04-15T05:07:54.258Z,9.60
2023-04-15T05:10:23.757Z,8.30
2023-04-15T05:12:53.004Z,10.10
2023-04-15T05:15:22.933Z,9.00
2023-04-15T05:17:52.751Z,13.20
2023-04-15T05:20:22.013Z,11.50
2023-04-15T05:22:51.818Z,11.70
2023-04-15T05:25:22.031Z,11.90
2023-04-15T05:27:51.591Z,10.40
2023-04-15T05:30:21.776Z,10.30
2023-04-15T05:32:53.194Z,10.50
2023-04-15T05:35:22.798Z,9.10
2023-04-15T05:37:52.023Z,8.30
2023-04-15T05:40:22.279Z,10.00
2023-04-15T05:42:51.891Z,14.50
2023-04-15T05:45:21.576Z,10.80
2023-04-15T05:47:53.729Z,8.50
2023-04-15T05:50:23.078Z,12.30
2023-04-15T05:52:58.225Z,10.30
2023-04-15T05:55:28.477Z,13.20
2023-04-15T05:58:03.523Z,10.70
2023-04-15T06:00:35.926Z,18.40
2023-04-15T06:03:05.895Z,10.00
2023-04-15T06:05:35.506Z,9.80
2023-04-15T06:08:04.826Z,8.90
2023-04-15T06:10:36.072Z,8.60
2023-04-15T06:13:07.384Z,9.40
2023-04-15T06:15:37.520Z,10.20
2023-04-15T06:18:07.243Z,11.30
2023-04-15T06:20:37.181Z,9.20
2023-04-15T06:23:06.650Z,10.90
2023-04-15T06:25:36.282Z,9.80
2023-04-15T06:28:05.978Z,9.30
2023-04-15T06:30:36.587Z,10.00
2023-04-15T06:33:06.916Z,9.00
2023-04-15T06:35:36.044Z,9.70
2023-04-15T06:38:06.102Z,8.90
2023-04-15T06:40:35.470Z,9.90
2023-04-15T06:43:05.029Z,10.90
2023-04-15T06:45:34.559Z,9.70
2023-04-15T06:48:04.346Z,10.00
2023-04-15T06:50:35.352Z,10.30
2023-04-15T06:53:04.655Z,13.50
2023-04-15T06:55:33.928Z,10.20
2023-04-15T06:58:03.600Z,10.50
2023-04-15T07:00:36.831Z,9.10
2023-04-15T07:03:09.570Z,9.80
2023-04-15T07:05:39.174Z,11.10
2023-04-15T07:08:08.478Z,9.80
2023-04-15T07:10:38.181Z,10.20
2023-04-15T07:13:08.408Z,11.70
2023-04-15T07:15:37.808Z,10.70
2023-04-15T07:18:07.150Z,8.90
2023-04-15T07:20:36.555Z,11.50
2023-04-15T07:23:06.085Z,11.60
2023-04-15T07:25:35.318Z,14.00
2023-04-15T07:28:05.149Z,9.90
2023-04-15T07:30:35.278Z,11.70
2023-04-15T07:33:04.618Z,13.30
2023-04-15T07:35:33.857Z,10.20
2023-04-15T07:38:08.058Z,14.70
2023-04-15T07:40:37.374Z,10.90
2023-04-15T07:43:06.933Z,10.20
2023-04-15T07:45:36.324Z,10.70
2023-04-15T07:48:07.865Z,10.90
2023-04-15T07:50:37.641Z,13.20
2023-04-15T07:53:06.974Z,9.80
2023-04-15T07:55:36.211Z,10.10
2023-04-15T07:58:05.558Z,8.10
2023-04-15T08:00:35.774Z,6.80
2023-04-15T08:03:07.921Z,6.70
2023-04-15T08:05:37.347Z,5.30
2023-04-15T08:08:07.008Z,8.40
2023-04-15T08:10:38.096Z,6.60
2023-04-15T08:13:07.720Z,7.80
2023-04-15T08:15:37.517Z,6.20
2023-04-15T08:18:07.963Z,7.30
2023-04-15T08:20:37.964Z,10.40
2023-04-15T08:23:07.127Z,7.40
2023-04-15T08:25:36.640Z,5.90
2023-04-15T08:28:07.477Z,8.90
2023-04-15T08:30:36.665Z,6.50
2023-04-15T08:33:06.288Z,7.80
2023-04-15T08:35:35.997Z,7.30
2023-04-15T08:38:05.159Z,6.80
2023-04-15T08:40:42.590Z,6.80
2023-04-15T08:43:17.195Z,6.90
2023-04-15T08:45:49.360Z,5.70
2023-04-15T08:48:19.396Z,4.70
2023-04-15T08:50:49.571Z,5.10
2023-04-15T08:53:19.241Z,6.30
2023-04-15T08:55:53.127Z,7.10
2023-04-15T08:58:22.412Z,5.60
2023-04-15T09:00:52.286Z,5.30
2023-04-15T09:03:23.224Z,5.70
2023-04-15T09:05:53.386Z,5.40
2023-04-15T09:08:22.527Z,4.40
2023-04-15T09:10:52.060Z,5.40
2023-04-15T09:13:21.495Z,2.80
2023-04-15T09:15:52.350Z,4.00
2023-04-15T09:18:32.918Z,4.20
2023-04-15T09:21:13.362Z,5.00
2023-04-15T09:23:56.225Z,5.50
2023-04-15T09:26:36.602Z,3.60
2023-04-15T09:29:07.554Z,3.60
2023-04-15T09:31:38.881Z,5.60
2023-04-15T09:34:08.385Z,6.60
2023-04-15T09:36:54.241Z,4.00
2023-04-15T09:39:27.449Z,2.90
2023-04-15T09:42:07.150Z,4.10
2023-04-15T09:44:36.354Z,5.30
2023-04-15T09:47:06.404Z,4.70
2023-04-15T09:49:35.900Z,3.40
2023-04-15T09:52:06.540Z,3.50
2023-04-15T09:54:37.895Z,4.10
2023-04-15T09:57:09.396Z,3.30
2023-04-15T09:59:40.047Z,4.80
2023-04-15T10:02:10.995Z,4.40
2023-04-15T10:04:42.106Z,4.00
2023-04-15T10:07:13.819Z,3.20
2023-04-15T10:09:46.461Z,4.00
2023-04-15T10:12:19.363Z,4.70
2023-04-15T10:14:56.670Z,3.50
2023-04-15T10:17:31.187Z,3.10
2023-04-15T10:20:05.167Z,4.60
2023-04-15T10:22:35.670Z,4.40
2023-04-15T10:25:07.646Z,3.90
2023-04-15T10:27:37.362Z,3.20
2023-04-15T10:30:09.135Z,3.80
2023-04-15T10:32:39.949Z,5.00
2023-04-15T10:35:10.706Z,3.60
2023-04-15T10:37:40.028Z,5.90
2023-04-15T10:40:32.772Z,3.60
2023-04-15T10:43:04.900Z,5.20
2023-04-15T10:45:37.352Z,10.30
2023-04-15T10:48:08.812Z,5.60
2023-04-15T10:50:38.893Z,5.50
2023-04-15T10:53:11.413Z,7.70
2023-04-15T10:55:40.877Z,3.80
2023-04-15T10:58:11.092Z,3.10
2023-04-15T11:00:40.754Z,2.70
2023-04-15T11:03:11.700Z,2.80
2023-04-15T11:05:54.139Z,2.80
2023-04-15T11:08:59.800Z,2.70
2023-04-15T11:12:07.998Z,3.40
2023-04-15T11:14:43.030Z,3.40
2023-04-15T11:17:12.990Z,3.00
2023-04-15T11:19:45.258Z,3.30
2023-04-15T11:22:15.182Z,2.60
2023-04-15T11:24:50.406Z,4.70
2023-04-15T11:27:26.878Z,2.90
2023-04-15T11:29:56.151Z,2.50
2023-04-15T11:32:25.599Z,4.20
2023-04-15T11:34:58.054Z,4.30
2023-04-15T11:37:33.117Z,2.40
2023-04-15T11:40:04.907Z,2.80
2023-04-15T11:42:48.644Z,2.40
2023-04-15T11:45:19.928Z,3.10
2023-04-15T11:47:49.385Z,3.30
2023-04-15T11:50:23.137Z,2.30
2023-04-15T11:52:57.366Z,2.90
2023-04-15T11:55:27.417Z,3.40
2023-04-15T11:58:10.403Z,3.10
2023-04-15T12:00:40.742Z,3.10
2023-04-15T12:03:20.316Z,2.40
2023-04-15T12:06:17.266Z,3.30
2023-04-15T12:09:03.251Z,3.20
2023-04-15T12:11:38.067Z,2.80
2023-04-15T12:14:10.828Z,2.20
2023-04-15T12:16:48.823Z,4.20
2023-04-15T12:19:23.740Z,3.80
2023-04-15T12:21:54.492Z,4.10
2023-04-15T12:24:23.681Z,3.70
2023-04-15T12:26:56.737Z,2.60
2023-04-15T12:29:28.225Z,4.20
2023-04-15T12:31:58.788Z,2.90
2023-04-15T12:34:30.610Z,2.70
2023-04-15T12:37:06.281Z,2.40
2023-04-15T12:39:38.738Z,3.00
2023-04-15T12:42:09.999Z,2.00
2023-04-15T12:44:42.625Z,2.60
2023-04-15T12:47:13.287Z,3.40
2023-04-15T12:49:45.303Z,4.20
2023-04-15T12:52:16.181Z,3.00
2023-04-15T12:54:46.358Z,2.70
2023-04-15T12:57:15.610Z,4.00
2023-04-15T12:59:44.722Z,2.00
2023-04-15T13:02:15.248Z,2.10
2023-04-15T13:04:45.081Z,2.60
2023-04-15T13:07:15.332Z,1.80
2023-04-15T13:09:44.616Z,2.60
2023-04-15T13:12:14.814Z,3.60
2023-04-15T13:14:44.055Z,1.70
2023-04-15T13:17:13.610Z,2.60
2023-04-15T13:19:42.862Z,2.50
2023-04-15T13:22:12.392Z,2.90
2023-04-15T13:24:41.660Z,2.80
2023-04-15T13:27:11.113Z,2.60
2023-04-15T13:29:40.784Z,2.30
2023-04-15T13:32:09.912Z,3.80
2023-04-15T13:34:39.311Z,3.20
2023-04-15T13:37:08.945Z,2.40
2023-04-15T13:39:38.209Z,2.70
2023-04-15T13:42:07.442Z,2.80
2023-04-15T13:44:36.904Z,2.80
2023-04-15T13:47:06.308Z,2.80
2023-04-15T13:49:37.078Z,3.10
2023-04-15T13:52:06.789Z,3.00
2023-04-15T13:54:37.481Z,2.00
2023-04-15T13:57:07.684Z,2.80
2023-04-15T13:59:36.913Z,3.70
2023-04-15T14:02:06.867Z,2.00
2023-04-15T14:04:36.540Z,2.60
2023-04-15T14:07:06.382Z,3.10
2023-04-15T14:09:42.996Z,3.60
2023-04-15T14:12:12.777Z,1.10
2023-04-15T14:14:42.035Z,1.50
2023-04-15T14:17:11.427Z,3.20
2023-04-15T14:19:41.243Z,3.60
2023-04-15T14:22:11.313Z,3.10
2023-04-15T14:24:48.793Z,2.40
2023-04-15T14:27:18.368Z,6.40
2023-04-15T14:29:47.857Z,2.30
2023-04-15T14:32:17.402Z,2.50
2023-04-15T14:34:47.175Z,1.70
2023-04-15T14:37:17.238Z,3.00
2023-04-15T14:39:46.802Z,1.60
2023-04-15T14:42:17.294Z,3.40
2023-04-15T14:44:47.067Z,2.70
2023-04-15T14:47:16.610Z,2.10
2023-04-15T14:49:46.044Z,3.10
2023-04-15T14:52:15.689Z,3.20
2023-04-15T14:54:45.216Z,2.60
2023-04-15T14:57:14.561Z,4.80
2023-04-15T14:59:44.661Z,4.20
2023-04-15T15:02:26.273Z,2.70
2023-04-15T15:05:06.167Z,3.10
2023-04-15T15:07:37.450Z,2.80
2023-04-15T15:10:09.008Z,3.30
2023-04-15T15:12:38.951Z,2.80
2023-04-15T15:15:25.013Z,4.40
2023-04-15T15:17:55.178Z,2.60
2023-04-15T15:20:25.455Z,2.10
2023-04-15T15:22:56.251Z,3.30
2023-04-15T15:25:27.046Z,4.30
2023-04-15T15:27:57.620Z,2.00
2023-04-15T15:30:30.453Z,2.20
2023-04-15T15:33:06.746Z,3.10
2023-04-15T15:35:36.545Z,3.00
2023-04-15T15:38:11.592Z,2.90
2023-04-15T15:40:42.685Z,3.50
2023-04-15T15:43:12.310Z,4.40
2023-04-15T15:45:43.291Z,2.50
2023-04-15T15:48:13.245Z,1.90
2023-04-15T15:50:42.500Z,4.20
2023-04-15T15:53:13.169Z,2.50
2023-04-15T15:55:43.097Z,2.70
2023-04-15T15:58:12.681Z,3.40
2023-04-15T16:00:42.510Z,5.40
2023-04-15T16:03:12.041Z,3.20
2023-04-15T16:05:41.217Z,2.60
2023-04-15T16:08:10.645Z,2.30
2023-04-15T16:10:40.432Z,3.30
2023-04-15T16:13:10.359Z,2.70
2023-04-15T16:15:39.516Z,2.60
2023-04-15T16:18:08.911Z,2.40
2023-04-15T16:20:39.156Z,2.10
2023-04-15T16:23:14.160Z,4.00
2023-04-15T16:25:44.753Z,3.20
2023-04-15T16:28:25.789Z,2.00
2023-04-15T16:30:57.582Z,2.30
2023-04-15T16:33:27.625Z,2.00
2023-04-15T16:35:57.296Z,2.90
2023-04-15T16:38:26.920Z,2.40
2023-04-15T16:41:00.352Z,3.90
2023-04-15T16:43:29.699Z,2.50
2023-04-15T16:45:59.336Z,3.00
2023-04-15T16:48:28.988Z,2.50
2023-04-15T16:50:59.766Z,2.40
2023-04-15T16:53:29.705Z,3.10
2023-04-15T16:55:59.231Z,2.80
2023-04-15T16:58:28.666Z,3.00
2023-04-15T17:00:58.216Z,3.40
2023-04-15T17:03:28.079Z,5.00
2023-04-15T17:05:57.393Z,2.80
2023-04-15T17:08:26.621Z,3.00
2023-04-15T17:10:57.343Z,3.90
2023-04-15T17:13:27.378Z,6.30
2023-04-15T17:15:56.671Z,3.00
2023-04-15T17:18:26.645Z,2.50
2023-04-15T17:20:56.102Z,3.40
2023-04-15T17:23:26.595Z,3.40
2023-04-15T17:25:55.983Z,4.20
2023-04-15T17:28:25.512Z,4.20
2023-04-15T17:30:54.712Z,3.60
2023-04-15T17:33:55.102Z,4.30
2023-04-15T17:36:13.957Z,4.90
2023-04-15T17:38:43.260Z,3.50
2023-04-15T17:41:12.778Z,3.20
2023-04-15T17:43:43.276Z,4.70
2023-04-15T17:46:12.960Z,4.30
2023-04-15T17:48:42.172Z,4.20
2023-04-15T17:51:12.359Z,4.30
2023-04-15T17:53:41.647Z,5.30
2023-04-15T17:56:10.932Z,4.80
2023-04-15T17:58:40.189Z,3.70
2023-04-15T18:01:09.595Z,3.20
2023-04-15T18:03:39.070Z,4.50
2023-04-15T18:06:08.479Z,4.30
2023-04-15T18:08:37.830Z,3.10
2023-04-15T18:11:08.794Z,3.10
2023-04-15T18:13:38.343Z,3.00
2023-04-15T18:16:07.819Z,3.40
2023-04-15T18:18:38.316Z,4.50
2023-04-15T18:21:07.901Z,5.60
2023-04-15T18:23:38.660Z,3.70
2023-04-15T18:26:08.153Z,5.30
2023-04-15T18:28:39.198Z,4.80
2023-04-15T18:31:08.940Z,7.00
2023-04-15T18:33:39.215Z,6.00
2023-04-15T18:36:09.606Z,4.20
2023-04-15T18:38:38.886Z,9.30
2023-04-15T18:41:10.008Z,5.60
2023-04-15T18:43:39.924Z,5.10
2023-04-15T18:46:11.921Z,4.90
2023-04-15T18:48:41.336Z,5.70
2023-04-15T18:51:11.750Z,4.40
2023-04-15T18:53:42.032Z,7.30
2023-04-15T18:56:11.410Z,10.70
2023-04-15T18:59:28.173Z,9.80
2023-04-15T19:01:31.029Z,11.80
2023-04-15T19:04:01.058Z,9.10
2023-04-15T19:06:30.440Z,6.50
2023-04-15T19:08:59.612Z,8.70
2023-04-15T19:11:33.208Z,7.90
2023-04-15T19:14:03.327Z,7.60
2023-04-15T19:16:34.624Z,9.00
2023-04-15T19:19:06.027Z,12.10
2023-04-15T19:21:37.104Z,22.60
2023-04-15T19:24:08.934Z,17.90
2023-04-15T19:26:38.244Z,14.20
2023-04-15T19:29:08.558Z,12.10
2023-04-15T19:31:37.904Z,13.90
2023-04-15T19:34:07.996Z,9.60
2023-04-15T19:36:38.335Z,9.50
2023-04-15T19:39:08.154Z,9.70
2023-04-15T19:41:40.125Z,10.70
2023-04-15T19:44:12.455Z,14.60
2023-04-15T19:46:44.174Z,17.10
2023-04-15T19:49:13.627Z,12.40
2023-04-15T19:51:43.154Z,14.90
2023-04-15T19:54:12.399Z,13.90
2023-04-15T19:56:41.740Z,15.60
2023-04-15T19:59:12.277Z,16.00
2023-04-15T20:01:41.982Z,16.70
2023-04-15T20:04:11.714Z,20.40
2023-04-15T20:06:41.259Z,20.10
2023-04-15T20:09:11.508Z,18.20
2023-04-15T20:12:46.283Z,17.10
2023-04-15T20:14:30.688Z,15.80
2023-04-15T20:17:03.201Z,16.20
2023-04-15T20:19:33.689Z,18.90
2023-04-15T20:22:05.060Z,19.90
2023-04-15T20:24:35.394Z,18.30
2023-04-15T20:27:05.838Z,15.40
2023-04-15T20:29:37.348Z,20.60
2023-04-15T20:32:11.041Z,18.40
2023-04-15T20:34:40.768Z,19.20
2023-04-15T20:37:12.223Z,16.80
2023-04-15T20:39:42.391Z,20.80
2023-04-15T20:42:11.575Z,17.10
2023-04-15T20:44:40.773Z,14.30
2023-04-15T20:47:10.469Z,14.90
2023-04-15T20:49:40.103Z,15.70
2023-04-15T20:52:09.707Z,16.00
2023-04-15T20:54:39.205Z,14.80
2023-04-15T20:57:08.536Z,15.10
2023-04-15T20:59:38.497Z,15.10
2023-04-15T21:02:10.005Z,12.40
2023-04-15T21:04:39.447Z,16.00
2023-04-15T21:07:09.450Z,10.70
2023-04-15T21:09:40.795Z,9.30
2023-04-15T21:12:10.594Z,9.50
2023-04-15T21:14:40.030Z,9.50
2023-04-15T21:17:11.117Z,9.40
2023-04-15T21:19:40.836Z,9.70
2023-04-15T21:22:10.010Z,9.70
2023-04-15T21:24:39.454Z,9.90
2023-04-15T21:27:09.079Z,7.60
2023-04-15T21:29:39.884Z,8.70
2023-04-15T21:32:09.209Z,10.10
2023-04-15T21:34:38.499Z,9.90
2023-04-15T21:37:08.379Z,10.50
2023-04-15T21:39:38.809Z,10.30
2023-04-15T21:42:08.564Z,7.90
2023-04-15T21:44:38.512Z,8.60
2023-04-15T21:47:08.706Z,9.00
2023-04-15T21:49:38.476Z,9.50
2023-04-15T21:52:08.534Z,8.50
2023-04-15T21:54:38.692Z,11.00
2023-04-15T21:57:08.777Z,7.70
2023-04-15T21:59:38.509Z,9.90
2023-04-15T22:02:08.692Z,11.70
2023-04-15T22:04:38.719Z,8.00
2023-04-15T22:07:09.296Z,7.70
2023-04-15T22:09:38.805Z,9.00
2023-04-15T22:12:09.170Z,8.30
2023-04-15T22:14:38.958Z,7.50
2023-04-15T22:17:08.820Z,8.10
2023-04-15T22:19:38.787Z,10.20
2023-04-15T22:22:11.763Z,7.70
2023-04-15T22:24:41.088Z,6.50
2023-04-15T22:27:10.633Z,7.30
2023-04-15T22:29:39.884Z,7.70
2023-04-15T22:32:09.338Z,7.70
2023-04-15T22:34:39.835Z,7.30
2023-04-15T22:37:09.251Z,6.40
2023-04-15T22:39:39.960Z,7.30
2023-04-15T22:42:09.532Z,7.00
2023-04-15T22:44:38.995Z,7.10
2023-04-15T22:47:08.807Z,8.20
2023-04-15T22:49:38.993Z,7.30
2023-04-15T22:52:14.514Z,8.00
2023-04-15T22:54:49.566Z,7.70
2023-04-15T22:57:19.050Z,10.10
2023-04-15T22:59:48.243Z,7.00
2023-04-15T23:02:17.692Z,6.30
2023-04-15T23:04:47.505Z,11.10
2023-04-15T23:07:16.848Z,6.50
2023-04-15T23:09:45.983Z,8.90
2023-04-15T23:12:15.606Z,9.60
2023-04-15T23:14:45.403Z,8.90
2023-04-15T23:17:14.657Z,8.90
2023-04-15T23:19:43.915Z,8.20
2023-04-15T23:22:13.273Z,9.60
2023-04-15T23:24:42.773Z,9.80
2023-04-15T23:27:11.980Z,9.50
2023-04-15T23:29:41.302Z,8.60
2023-04-15T23:32:10.489Z,8.30
2023-04-15T23:34:40.093Z,10.50
2023-04-15T23:37:09.398Z,10.10
2023-04-15T23:39:39.532Z,8.90
2023-04-15T23:42:09.538Z,10.10
2023-04-15T23:44:39.496Z,8.90
2023-04-15T23:47:10.739Z,10.30
2023-04-15T23:49:41.352Z,11.30
2023-04-15T23:52:26.410Z,8.90
2023-04-15T23:54:55.546Z,9.50
2023-04-15T23:57:24.624Z,8.50
2023-04-15T23:59:54.591Z,10.40
